Schenectady, New York
Current Conditions -  °F | °C
As of 5:51 PM on Tuesday 27 Jan 2015 (Local Time) from KALB Reporting Station
Light Snow Light Snow  
Wind Chill: -1°   Ceiling: 7000
Heat Index: 12°   Visibility: 8mi
Dew Point:   Wind: 10mph
Humidity: 59%   Direction: 20°NNE
Pressure: 29.84"   Gusts: NA
Location:  42.81°N, 73.94°W
Report Text: KALB 272251Z 02009KT 8SM -SN FEW029 SCT039 OVC070 M11/M18 A2984 RMK AO2 SLP112 PCPN VRY LGT P0000 T11111178
Loading
Personal Weather Stations






























Interactive Weather Map New forecast layout! Learn more

10-Day Weather Forecast

Advertisements
Track Severe Weather on mobile